Time,TemperatureF,DewpointF,PressureIn,WindDirection,WindDirectionDegrees,WindSpeedMPH,WindSpeedGustMPH,Humidity,HourlyPrecipIn,Conditions,Clouds,dailyrainin,SoftwareType,DateUTC
2013-12-06 00:01:00,66.7,64.9,39.16,SE,135,0.7,3.1,92,0.00,,,0.01,fowsr,2013-12-06 05:01:00,
2013-12-06 00:06:00,66.7,64.9,39.16,East,90,1.6,3.1,92,0.00,,,0.01,fowsr,2013-12-06 05:06:00,
2013-12-06 00:11:00,66.7,64.9,39.16,SE,135,2.2,3.1,92,0.00,,,0.01,fowsr,2013-12-06 05:11:00,
2013-12-06 00:16:00,66.9,65.0,39.16,SE,135,2.2,4.5,92,0.00,,,0.01,fowsr,2013-12-06 05:16:00,
2013-12-06 00:21:00,66.9,65.0,39.16,SSE,157,2.2,5.4,92,0.00,,,0.01,fowsr,2013-12-06 05:21:00,
2013-12-06 00:26:00,66.9,65.0,39.16,SE,135,1.6,6.0,92,0.00,,,0.01,fowsr,2013-12-06 05:26:00,
2013-12-06 00:31:00,66.9,65.0,39.16,East,90,0.7,1.6,92,0.00,,,0.01,fowsr,2013-12-06 05:31:00,
2013-12-06 00:36:00,66.9,65.0,39.16,East,90,1.6,2.2,92,0.00,,,0.01,fowsr,2013-12-06 05:36:00,
2013-12-06 00:41:00,66.9,65.0,39.16,SE,135,1.6,3.8,92,0.00,,,0.01,fowsr,2013-12-06 05:41:00,
2013-12-06 00:46:00,66.9,65.0,39.16,SE,135,1.6,3.1,92,0.00,,,0.01,fowsr,2013-12-06 05:46:00,
2013-12-06 00:51:00,66.9,65.0,39.16,East,90,0.0,0.7,92,0.00,,,0.01,fowsr,2013-12-06 05:51:00,
2013-12-06 00:56:00,66.7,64.9,39.16,NE,45,0.0,1.6,92,0.00,,,0.01,fowsr,2013-12-06 05:56:00,
2013-12-06 01:01:00,66.6,64.7,39.16,SE,135,2.2,3.8,92,0.00,,,0.01,fowsr,2013-12-06 06:01:00,
2013-12-06 01:06:00,66.6,64.7,39.16,SE,135,2.2,3.8,92,0.00,,,0.01,fowsr,2013-12-06 06:06:00,
2013-12-06 01:11:00,66.6,64.7,39.16,SE,135,0.0,1.6,92,0.00,,,0.01,fowsr,2013-12-06 06:11:00,
2013-12-06 01:16:00,66.6,64.7,39.16,SE,135,0.7,1.6,92,0.00,,,0.01,fowsr,2013-12-06 06:16:00,
2013-12-06 01:21:00,66.6,64.7,39.16,SE,135,0.0,0.0,92,0.00,,,0.01,fowsr,2013-12-06 06:21:00,
2013-12-06 01:26:00,66.7,64.9,39.16,NE,45,0.7,2.2,92,0.00,,,0.01,fowsr,2013-12-06 06:26:00,
2013-12-06 01:36:00,66.7,64.9,39.16,ESE,112,1.6,2.2,92,0.00,,,0.01,fowsr,2013-12-06 06:36:00,
2013-12-06 01:41:00,66.9,65.0,39.16,SW,225,0.7,1.6,92,0.00,,,0.01,fowsr,2013-12-06 06:41:00,
2013-12-06 01:46:00,66.9,65.0,39.16,North,0,0.0,1.6,92,0.00,,,0.01,fowsr,2013-12-06 06:46:00,
2013-12-06 01:51:00,67.1,65.2,39.16,ESE,112,0.0,1.6,92,0.00,,,0.01,fowsr,2013-12-06 06:51:00,
2013-12-06 01:56:00,67.1,65.2,39.16,South,180,1.6,3.1,92,0.00,,,0.01,fowsr,2013-12-06 06:56:00,
2013-12-06 02:01:00,67.1,65.2,39.16,SE,135,0.7,2.2,92,0.00,,,0.01,fowsr,2013-12-06 07:01:00,
2013-12-06 02:06:00,67.1,65.0,39.16,East,90,0.7,3.1,91,0.00,,,0.01,fowsr,2013-12-06 07:06:00,
2013-12-06 02:11:00,67.3,65.2,39.16,SE,135,0.7,1.6,91,0.00,,,0.01,fowsr,2013-12-06 07:11:00,
2013-12-06 02:16:00,67.3,65.2,39.16,SW,225,0.0,0.7,91,0.00,,,0.01,fowsr,2013-12-06 07:16:00,
2013-12-06 02:21:00,67.3,64.9,39.16,SE,135,0.0,1.6,90,0.00,,,0.01,fowsr,2013-12-06 07:21:00,
2013-12-06 02:26:00,67.3,64.9,39.16,NW,315,0.7,2.2,90,0.00,,,0.01,fowsr,2013-12-06 07:26:00,
2013-12-06 02:31:00,67.3,64.9,39.16,NE,45,0.7,2.2,90,0.00,,,0.01,fowsr,2013-12-06 07:31:00,
2013-12-06 02:36:00,67.3,64.7,39.16,South,180,2.2,5.4,89,0.00,,,0.01,fowsr,2013-12-06 07:36:00,
2013-12-06 02:41:00,67.3,64.7,39.15,SE,135,0.7,1.6,89,0.00,,,0.01,fowsr,2013-12-06 07:41:00,
2013-12-06 02:46:00,67.3,64.7,39.20,NE,45,0.0,0.7,89,0.00,,,0.01,fowsr,2013-12-06 07:46:00,
2013-12-06 02:51:00,67.3,64.7,39.15,East,90,2.2,4.5,89,0.00,,,0.01,fowsr,2013-12-06 07:51:00,
2013-12-06 02:56:00,67.3,64.7,39.20,South,180,3.1,5.4,89,0.00,,,0.01,fowsr,2013-12-06 07:56:00,
2013-12-06 03:01:00,67.3,64.4,39.24,SE,135,0.7,1.6,88,0.00,,,0.01,fowsr,2013-12-06 08:01:00,
2013-12-06 03:06:00,67.3,64.4,39.20,SE,135,0.7,1.6,88,0.00,,,0.01,fowsr,2013-12-06 08:06:00,
2013-12-06 03:11:00,67.3,64.4,39.24,East,90,0.7,3.1,88,0.00,,,0.01,fowsr,2013-12-06 08:11:00,
2013-12-06 03:16:00,67.3,64.4,39.24,ESE,112,2.2,3.1,88,0.00,,,0.01,fowsr,2013-12-06 08:16:00,
2013-12-06 03:21:00,67.3,64.4,39.29,SE,135,0.7,1.6,88,0.00,,,0.01,fowsr,2013-12-06 08:21:00,
2013-12-06 03:26:00,67.1,64.2,39.29,East,90,0.0,2.2,88,0.00,,,0.01,fowsr,2013-12-06 08:26:00,
2013-12-06 03:31:00,66.9,64.1,39.29,West,270,0.0,1.6,88,0.00,,,0.01,fowsr,2013-12-06 08:31:00,
2013-12-06 03:36:00,66.9,64.1,39.24,SE,135,0.0,1.6,88,0.00,,,0.01,fowsr,2013-12-06 08:36:00,
2013-12-06 03:41:00,66.7,63.9,39.29,NE,45,0.7,2.2,88,0.00,,,0.01,fowsr,2013-12-06 08:41:00,
2013-12-06 03:46:00,66.6,63.7,39.29,SE,135,0.7,0.7,88,0.00,,,0.01,fowsr,2013-12-06 08:46:00,
2013-12-06 03:51:00,66.4,63.5,39.34,NE,45,0.7,3.1,88,0.00,,,0.01,fowsr,2013-12-06 08:51:00,
2013-12-06 03:56:00,66.4,63.5,39.34,SE,135,0.0,0.7,88,0.00,,,0.01,fowsr,2013-12-06 08:56:00,
2013-12-06 04:01:00,66.2,63.4,39.38,SE,135,0.7,1.6,88,0.00,,,0.01,fowsr,2013-12-06 09:01:00,
2013-12-06 04:06:00,66.2,63.4,39.34,SE,135,0.0,1.6,88,0.00,,,0.01,fowsr,2013-12-06 09:06:00,
2013-12-06 04:11:00,66.2,63.4,39.34,SE,135,0.7,2.2,88,0.00,,,0.01,fowsr,2013-12-06 09:11:00,
2013-12-06 04:16:00,66.2,63.6,39.34,SE,135,0.0,0.7,89,0.00,,,0.01,fowsr,2013-12-06 09:16:00,
2013-12-06 04:21:00,66.2,63.6,39.38,East,90,0.7,2.2,89,0.00,,,0.01,fowsr,2013-12-06 09:21:00,
2013-12-06 04:26:00,66.2,63.6,39.38,SE,135,0.7,3.8,89,0.00,,,0.01,fowsr,2013-12-06 09:26:00,
2013-12-06 04:31:00,66.0,63.7,39.38,SE,135,1.6,2.2,90,0.00,,,0.01,fowsr,2013-12-06 09:31:00,
2013-12-06 04:36:00,66.0,63.7,39.52,SE,135,0.0,0.7,90,0.00,,,0.01,fowsr,2013-12-06 09:36:00,
2013-12-06 04:41:00,65.8,63.5,39.38,SE,135,1.6,4.5,90,0.00,,,0.01,fowsr,2013-12-06 09:41:00,
2013-12-06 04:46:00,66.0,63.7,39.39,South,180,0.0,0.0,90,0.00,,,0.01,fowsr,2013-12-06 09:46:00,
2013-12-06 04:51:00,65.8,63.5,39.39,East,90,0.7,1.6,90,0.00,,,0.01,fowsr,2013-12-06 09:51:00,
2013-12-06 04:56:00,66.0,63.7,39.39,East,90,0.0,0.7,90,0.00,,,0.01,fowsr,2013-12-06 09:56:00,
2013-12-06 05:01:00,66.0,63.7,39.48,SE,135,0.7,3.1,90,0.00,,,0.01,fowsr,2013-12-06 10:01:00,
2013-12-06 05:06:00,66.0,63.7,39.48,SE,135,0.7,3.1,90,0.00,,,0.01,fowsr,2013-12-06 10:06:00,
2013-12-06 05:16:00,66.2,63.6,39.48,SE,135,0.7,2.2,89,0.00,,,0.01,fowsr,2013-12-06 10:16:00,
2013-12-06 05:21:00,66.2,63.6,39.52,South,180,1.6,3.1,89,0.00,,,0.01,fowsr,2013-12-06 10:21:00,
2013-12-06 05:26:00,66.2,63.4,39.52,South,180,1.6,3.8,88,0.00,,,0.01,fowsr,2013-12-06 10:26:00,
2013-12-06 05:31:00,66.2,63.4,39.56,East,90,0.0,2.2,88,0.00,,,0.01,fowsr,2013-12-06 10:31:00,
2013-12-06 05:36:00,66.2,63.4,39.61,West,270,0.0,1.6,88,0.00,,,0.01,fowsr,2013-12-06 10:36:00,
2013-12-06 05:41:00,66.0,63.4,39.66,East,90,0.0,0.7,89,0.00,,,0.01,fowsr,2013-12-06 10:41:00,
2013-12-06 05:46:00,66.0,63.4,39.61,SE,135,0.0,1.6,89,0.00,,,0.01,fowsr,2013-12-06 10:46:00,
2013-12-06 05:51:00,65.8,63.2,39.61,SE,135,1.6,3.1,89,0.00,,,0.01,fowsr,2013-12-06 10:51:00,
2013-12-06 05:56:00,65.8,63.2,39.66,East,90,1.6,3.1,89,0.00,,,0.01,fowsr,2013-12-06 10:56:00,
2013-12-06 06:01:00,65.8,63.2,39.66,SE,135,1.6,3.8,89,0.00,,,0.01,fowsr,2013-12-06 11:01:00,
2013-12-06 06:06:00,65.8,63.2,39.71,SE,135,0.0,1.6,89,0.00,,,0.01,fowsr,2013-12-06 11:06:00,
2013-12-06 06:11:00,65.8,63.2,39.75,South,180,0.0,1.6,89,0.00,,,0.01,fowsr,2013-12-06 11:11:00,
2013-12-06 06:16:00,65.8,63.2,39.76,NE,45,0.7,2.2,89,0.00,,,0.01,fowsr,2013-12-06 11:16:00,
2013-12-06 06:21:00,65.8,63.2,39.76,South,180,0.0,1.6,89,0.00,,,0.01,fowsr,2013-12-06 11:21:00,
2013-12-06 06:26:00,65.8,63.2,39.75,SE,135,0.7,2.2,89,0.00,,,0.01,fowsr,2013-12-06 11:26:00,
2013-12-06 06:31:00,65.8,63.2,39.76,East,90,0.7,1.6,89,0.00,,,0.01,fowsr,2013-12-06 11:31:00,
2013-12-06 06:36:00,65.8,63.2,39.75,ESE,112,0.7,2.2,89,0.00,,,0.01,fowsr,2013-12-06 11:36:00,
2013-12-06 06:41:00,65.8,63.2,39.75,SE,135,2.2,3.8,89,0.00,,,0.01,fowsr,2013-12-06 11:41:00,
2013-12-06 06:46:00,65.8,63.2,39.75,East,90,0.7,2.2,89,0.00,,,0.01,fowsr,2013-12-06 11:46:00,
2013-12-06 06:51:00,65.7,63.1,39.80,East,90,1.6,3.1,89,0.00,,,0.01,fowsr,2013-12-06 11:51:00,
2013-12-06 06:56:00,65.7,63.1,39.80,East,90,0.7,3.8,89,0.00,,,0.01,fowsr,2013-12-06 11:56:00,
2013-12-06 07:01:00,65.5,62.9,39.85,East,90,1.6,2.2,89,0.00,,,0.01,fowsr,2013-12-06 12:01:00,
2013-12-06 07:06:00,65.5,62.9,39.85,East,90,1.6,2.2,89,0.00,,,0.01,fowsr,2013-12-06 12:06:00,
2013-12-06 07:11:00,65.5,62.9,39.85,SE,135,1.6,3.8,89,0.00,,,0.01,fowsr,2013-12-06 12:11:00,
2013-12-06 07:16:00,65.5,62.9,39.85,SE,135,0.7,3.1,89,0.00,,,0.01,fowsr,2013-12-06 12:16:00,
2013-12-06 07:21:00,65.5,62.9,39.85,SE,135,0.0,0.7,89,0.00,,,0.01,fowsr,2013-12-06 12:21:00,
2013-12-06 07:26:00,65.5,62.9,39.85,SE,135,1.6,3.8,89,0.00,,,0.01,fowsr,2013-12-06 12:26:00,
2013-12-06 07:31:00,65.5,62.9,39.90,South,180,0.0,0.7,89,0.00,,,0.01,fowsr,2013-12-06 12:31:00,
2013-12-06 07:36:00,65.5,62.9,39.90,East,90,0.7,1.6,89,0.00,,,0.01,fowsr,2013-12-06 12:36:00,
2013-12-06 07:41:00,65.5,62.9,39.90,East,90,0.7,1.6,89,0.00,,,0.01,fowsr,2013-12-06 12:41:00,
2013-12-06 07:46:00,65.5,62.9,39.94,SE,135,0.0,0.7,89,0.00,,,0.01,fowsr,2013-12-06 12:46:00,
2013-12-06 07:51:00,65.7,63.1,39.94,SE,135,0.7,1.6,89,0.00,,,0.01,fowsr,2013-12-06 12:51:00,
2013-12-06 07:56:00,65.7,63.1,39.99,SE,135,0.7,3.1,89,0.00,,,0.01,fowsr,2013-12-06 12:56:00,
2013-12-06 08:01:00,65.7,63.1,39.99,SE,135,0.0,0.0,89,0.00,,,0.01,fowsr,2013-12-06 13:01:00,
2013-12-06 08:06:00,65.8,63.2,39.99,ENE,67,0.7,3.1,89,0.00,,,0.01,fowsr,2013-12-06 13:06:00,
2013-12-06 08:11:00,66.2,63.4,40.04,South,180,0.7,1.6,88,0.00,,,0.01,fowsr,2013-12-06 13:11:00,
2013-12-06 08:16:00,66.4,63.5,40.04,East,90,0.7,2.2,88,0.00,,,0.01,fowsr,2013-12-06 13:16:00,
2013-12-06 08:21:00,66.6,63.5,40.04,East,90,3.8,8.3,87,0.00,,,0.01,fowsr,2013-12-06 13:21:00,
2013-12-06 08:26:00,66.9,63.8,40.09,SE,135,0.7,1.6,87,0.00,,,0.01,fowsr,2013-12-06 13:26:00,
2013-12-06 08:31:00,66.9,63.8,40.09,SE,135,0.0,0.7,87,0.00,,,0.01,fowsr,2013-12-06 13:31:00,
2013-12-06 08:36:00,66.9,63.5,40.14,NW,315,0.7,1.6,86,0.00,,,0.01,fowsr,2013-12-06 13:36:00,
2013-12-06 08:41:00,67.1,63.7,40.09,SE,135,0.7,2.2,86,0.00,,,0.01,fowsr,2013-12-06 13:41:00,
2013-12-06 08:51:00,67.3,63.9,40.14,East,90,3.1,6.0,86,0.00,,,0.01,fowsr,2013-12-06 13:51:00,
2013-12-06 08:56:00,67.5,64.1,40.14,East,90,0.0,0.7,86,0.00,,,0.01,fowsr,2013-12-06 13:56:00,
2013-12-06 09:01:00,67.6,64.0,40.19,South,180,0.0,1.6,85,0.00,,,0.01,fowsr,2013-12-06 14:01:00,
2013-12-06 09:06:00,67.6,64.0,40.14,South,180,0.0,1.6,85,0.00,,,0.01,fowsr,2013-12-06 14:06:00,
2013-12-06 09:11:00,68.4,64.4,40.14,SE,135,1.6,5.4,84,0.00,,,0.01,fowsr,2013-12-06 14:11:00,
2013-12-06 09:16:00,68.5,64.3,40.09,SE,135,1.6,3.1,83,0.00,,,0.01,fowsr,2013-12-06 14:16:00,
2013-12-06 09:21:00,68.9,64.7,40.14,West,270,0.0,1.6,83,0.00,,,0.01,fowsr,2013-12-06 14:21:00,
2013-12-06 09:26:00,69.3,64.8,40.19,East,90,4.5,6.0,82,0.00,,,0.00,fowsr,2013-12-06 14:26:00,
2013-12-06 09:31:00,69.6,64.8,40.23,SE,135,3.1,4.5,81,0.00,,,0.00,fowsr,2013-12-06 14:31:00,
2013-12-06 09:36:00,70.0,64.9,40.33,South,180,0.7,2.2,80,0.00,,,0.00,fowsr,2013-12-06 14:36:00,
2013-12-06 09:41:00,70.2,64.8,40.37,SE,135,2.2,3.8,79,0.00,,,0.00,fowsr,2013-12-06 14:41:00,
2013-12-06 09:46:00,70.5,65.2,40.37,SW,225,0.7,2.2,79,0.00,,,0.00,fowsr,2013-12-06 14:46:00,
2013-12-06 09:51:00,70.9,65.5,40.42,SW,225,0.7,3.1,79,0.00,,,0.00,fowsr,2013-12-06 14:51:00,
2013-12-06 09:56:00,71.1,65.4,40.51,SE,135,1.6,3.8,78,0.00,,,0.00,fowsr,2013-12-06 14:56:00,
2013-12-06 10:01:00,71.2,65.6,40.51,NNE,22,2.2,4.5,78,0.00,,,0.00,fowsr,2013-12-06 15:01:00,
2013-12-06 10:06:00,71.8,65.5,40.60,North,0,2.2,3.8,76,0.00,,,0.00,fowsr,2013-12-06 15:06:00,
2013-12-06 10:11:00,72.3,65.4,40.74,NW,315,1.6,3.1,74,0.00,,,0.00,fowsr,2013-12-06 15:11:00,
2013-12-06 10:16:00,73.0,66.1,40.78,West,270,2.2,4.5,74,0.00,,,0.00,fowsr,2013-12-06 15:16:00,
2013-12-06 10:21:00,73.8,66.5,40.88,South,180,0.7,2.2,73,0.00,,,0.00,fowsr,2013-12-06 15:21:00,
2013-12-06 10:26:00,74.7,67.4,40.92,NW,315,1.6,3.8,73,0.00,,,0.00,fowsr,2013-12-06 15:26:00,
2013-12-06 10:31:00,75.2,67.2,41.01,East,90,0.0,0.7,71,0.00,,,0.00,fowsr,2013-12-06 15:31:00,
2013-12-06 10:36:00,75.7,67.1,41.06,East,90,1.6,3.1,69,0.00,,,0.00,fowsr,2013-12-06 15:36:00,
2013-12-06 10:41:00,75.9,66.6,41.15,SW,225,4.5,6.9,67,0.00,,,0.00,fowsr,2013-12-06 15:41:00,
2013-12-06 10:46:00,76.1,66.8,41.34,SE,135,1.6,3.8,67,0.00,,,0.00,fowsr,2013-12-06 15:46:00,
2013-12-06 10:51:00,76.6,67.3,41.47,SE,135,1.6,3.1,67,0.00,,,0.00,fowsr,2013-12-06 15:51:00,
2013-12-06 10:56:00,77.4,67.6,41.61,NW,315,1.6,2.2,66,0.00,,,0.00,fowsr,2013-12-06 15:56:00,
2013-12-06 11:01:00,77.5,67.1,41.79,West,270,0.7,2.2,64,0.00,,,0.00,fowsr,2013-12-06 16:01:00,
2013-12-06 11:06:00,77.5,67.4,41.93,NNE,22,0.7,3.1,65,0.00,,,0.00,fowsr,2013-12-06 16:06:00,
2013-12-06 11:11:00,77.7,67.3,42.11,South,180,2.2,3.1,64,0.00,,,0.00,fowsr,2013-12-06 16:11:00,
2013-12-06 11:16:00,77.7,66.9,42.39,South,180,0.0,1.6,63,0.00,,,0.00,fowsr,2013-12-06 16:16:00,
2013-12-06 11:21:00,77.9,67.1,42.53,South,180,2.2,6.0,63,0.00,,,0.00,fowsr,2013-12-06 16:21:00,
2013-12-06 11:26:00,77.7,66.9,42.66,East,90,0.7,3.1,63,0.00,,,0.00,fowsr,2013-12-06 16:26:00,
2013-12-06 11:31:00,77.7,66.5,42.84,SE,135,0.0,0.7,62,0.00,,,0.00,fowsr,2013-12-06 16:31:00,
2013-12-06 11:36:00,77.7,66.5,42.93,SE,135,1.6,4.5,62,0.00,,,0.00,fowsr,2013-12-06 16:36:00,
2013-12-06 11:41:00,77.5,66.4,43.11,SW,225,0.0,1.6,62,0.00,,,0.00,fowsr,2013-12-06 16:41:00,
2013-12-06 11:46:00,77.9,66.7,43.34,East,90,0.7,3.1,62,0.00,,,0.00,fowsr,2013-12-06 16:46:00,
2013-12-06 11:51:00,78.4,67.2,43.52,SE,135,1.6,3.1,62,0.00,,,0.00,fowsr,2013-12-06 16:51:00,
2013-12-06 11:56:00,78.8,66.8,43.70,South,180,3.8,6.9,60,0.00,,,0.00,fowsr,2013-12-06 16:56:00,
2013-12-06 12:01:00,78.8,66.4,43.75,South,180,3.1,5.4,59,0.00,,,0.00,fowsr,2013-12-06 17:01:00,
2013-12-06 12:06:00,78.8,66.0,43.93,West,270,3.1,6.0,58,0.00,,,0.00,fowsr,2013-12-06 17:06:00,
2013-12-06 12:11:00,78.8,66.4,44.11,South,180,2.2,4.5,59,0.00,,,0.00,fowsr,2013-12-06 17:11:00,
2013-12-06 12:16:00,79.0,66.2,44.20,NE,45,1.6,4.5,58,0.00,,,0.00,fowsr,2013-12-06 17:16:00,
2013-12-06 12:21:00,79.5,66.7,44.48,ENE,67,1.6,3.1,58,0.00,,,0.00,fowsr,2013-12-06 17:21:00,
2013-12-06 12:26:00,79.7,66.9,44.61,East,90,2.2,6.0,58,0.00,,,0.00,fowsr,2013-12-06 17:26:00,
2013-12-06 12:31:00,79.7,66.9,44.75,NE,45,2.2,4.5,58,0.00,,,0.00,fowsr,2013-12-06 17:31:00,
2013-12-06 12:36:00,79.9,66.2,44.93,SW,225,1.6,4.5,56,0.00,,,0.00,fowsr,2013-12-06 17:36:00,
2013-12-06 12:41:00,80.1,66.0,45.11,NE,45,3.1,6.9,55,0.00,,,0.00,fowsr,2013-12-06 17:41:00,
2013-12-06 12:46:00,80.1,66.4,45.24,NW,315,1.6,3.8,56,0.00,,,0.00,fowsr,2013-12-06 17:46:00,
2013-12-06 12:51:00,80.2,66.2,45.42,North,0,1.6,3.1,55,0.00,,,0.00,fowsr,2013-12-06 17:51:00,
2013-12-06 12:56:00,80.2,66.2,45.61,East,90,2.2,6.0,55,0.00,,,0.00,fowsr,2013-12-06 17:56:00,
2013-12-06 13:01:00,80.2,66.2,45.70,NW,315,0.7,2.2,55,0.00,,,0.00,fowsr,2013-12-06 18:01:00,
2013-12-06 13:06:00,80.2,66.2,45.92,West,270,0.7,2.2,55,0.00,,,0.00,fowsr,2013-12-06 18:06:00,
2013-12-06 13:11:00,80.4,66.3,46.01,SE,135,0.7,4.5,55,0.00,,,0.00,fowsr,2013-12-06 18:11:00,
2013-12-06 13:16:00,80.4,66.3,46.15,SSE,157,5.4,9.2,55,0.00,,,0.00,fowsr,2013-12-06 18:16:00,
2013-12-06 13:21:00,80.1,66.0,46.28,South,180,3.1,6.9,55,0.00,,,0.00,fowsr,2013-12-06 18:21:00,
2013-12-06 13:26:00,80.1,66.0,46.60,East,90,2.2,4.5,55,0.00,,,0.00,fowsr,2013-12-06 18:26:00,
2013-12-06 13:31:00,79.9,65.8,46.87,SE,135,2.2,5.4,55,0.00,,,0.00,fowsr,2013-12-06 18:31:00,
2013-12-06 13:36:00,80.1,66.4,47.15,North,0,1.6,3.8,56,0.00,,,0.00,fowsr,2013-12-06 18:36:00,
2013-12-06 13:41:00,79.9,65.8,47.37,West,270,1.6,3.8,55,0.00,,,0.00,fowsr,2013-12-06 18:41:00,
2013-12-06 13:46:00,80.1,66.4,47.69,East,90,3.1,6.0,56,0.00,,,0.00,fowsr,2013-12-06 18:46:00,
2013-12-06 13:51:00,80.1,66.4,48.00,NW,315,0.0,0.7,56,0.00,,,0.00,fowsr,2013-12-06 18:51:00,
2013-12-06 13:56:00,80.2,66.6,48.28,South,180,1.6,3.8,56,0.00,,,0.00,fowsr,2013-12-06 18:56:00,
2013-12-06 14:01:00,80.2,66.6,48.60,SW,225,2.2,3.1,56,0.00,,,0.00,fowsr,2013-12-06 19:01:00,
2013-12-06 14:06:00,80.2,66.6,48.86,SE,135,3.1,4.5,56,0.00,,,0.00,fowsr,2013-12-06 19:06:00,
2013-12-06 14:11:00,80.2,66.6,49.23,South,180,0.7,1.6,56,0.00,,,0.00,fowsr,2013-12-06 19:11:00,
2013-12-06 14:16:00,80.6,66.5,49.63,SE,135,2.2,8.3,55,0.00,,,0.00,fowsr,2013-12-06 19:16:00,
2013-12-06 14:21:00,80.4,66.7,49.91,SSE,157,2.2,3.8,56,0.00,,,0.00,fowsr,2013-12-06 19:21:00,
2013-12-06 14:26:00,80.2,66.6,50.27,SE,135,1.6,3.1,56,0.00,,,0.00,fowsr,2013-12-06 19:26:00,
2013-12-06 14:31:00,80.2,66.6,50.59,NW,315,3.8,10.7,56,0.00,,,0.00,fowsr,2013-12-06 19:31:00,
2013-12-06 14:36:00,80.1,66.4,50.81,SE,135,2.2,4.5,56,0.00,,,0.00,fowsr,2013-12-06 19:36:00,
2013-12-06 14:41:00,80.1,66.4,51.13,SW,225,2.2,3.8,56,0.00,,,0.00,fowsr,2013-12-06 19:41:00,
2013-12-06 14:46:00,80.1,66.4,51.36,WNW,292,1.6,3.1,56,0.00,,,0.00,fowsr,2013-12-06 19:46:00,
2013-12-06 14:51:00,80.1,66.4,51.63,NE,45,0.7,2.2,56,0.00,,,0.00,fowsr,2013-12-06 19:51:00,
2013-12-06 14:56:00,79.9,66.2,51.90,SE,135,2.2,3.8,56,0.00,,,0.00,fowsr,2013-12-06 19:56:00,
2013-12-06 15:01:00,79.3,66.1,52.22,NE,45,1.6,3.8,57,0.00,,,0.00,fowsr,2013-12-06 20:01:00,
2013-12-06 15:06:00,79.2,66.4,52.49,SW,225,0.7,2.2,58,0.00,,,0.00,fowsr,2013-12-06 20:06:00,
2013-12-06 15:11:00,79.3,66.1,52.72,SE,135,0.7,2.2,57,0.00,,,0.00,fowsr,2013-12-06 20:11:00,
2013-12-06 15:16:00,79.5,66.3,52.99,SW,225,1.6,3.1,57,0.00,,,0.00,fowsr,2013-12-06 20:16:00,
2013-12-06 15:21:00,79.5,66.3,53.17,SE,135,0.7,2.2,57,0.00,,,0.00,fowsr,2013-12-06 20:21:00,
2013-12-06 15:26:00,79.3,66.1,53.40,West,270,0.7,3.1,57,0.00,,,0.00,fowsr,2013-12-06 20:26:00,
2013-12-06 15:31:00,79.3,66.1,53.62,East,90,0.7,3.1,57,0.00,,,0.00,fowsr,2013-12-06 20:31:00,
2013-12-06 15:36:00,79.0,65.8,53.76,North,0,2.2,6.9,57,0.00,,,0.00,fowsr,2013-12-06 20:36:00,
2013-12-06 15:41:00,78.6,65.9,54.00,NE,45,0.7,1.6,58,0.00,,,0.00,fowsr,2013-12-06 20:41:00,
2013-12-06 15:46:00,78.4,65.7,54.13,NW,315,2.2,4.5,58,0.00,,,0.00,fowsr,2013-12-06 20:46:00,
2013-12-06 15:51:00,78.3,65.9,54.31,SE,135,0.0,0.0,59,0.00,,,0.00,fowsr,2013-12-06 20:51:00,
2013-12-06 15:56:00,78.1,66.1,54.44,East,90,3.8,7.6,60,0.00,,,0.00,fowsr,2013-12-06 20:56:00,
2013-12-06 16:01:00,77.7,65.8,54.67,SE,135,0.7,2.2,60,0.00,,,0.00,fowsr,2013-12-06 21:01:00,
2013-12-06 16:06:00,77.4,65.8,54.81,NW,315,1.6,3.1,61,0.00,,,0.00,fowsr,2013-12-06 21:06:00,
2013-12-06 16:11:00,77.4,65.8,54.89,SE,135,2.2,5.4,61,0.00,,,0.00,fowsr,2013-12-06 21:11:00,
2013-12-06 16:16:00,77.2,65.7,54.99,NE,45,2.2,3.1,61,0.00,,,0.00,fowsr,2013-12-06 21:16:00,
2013-12-06 16:21:00,76.8,66.1,55.12,SSE,157,1.6,2.2,63,0.00,,,0.00,fowsr,2013-12-06 21:21:00,
2013-12-06 16:26:00,76.6,65.9,55.17,East,90,0.7,1.6,63,0.00,,,0.00,fowsr,2013-12-06 21:26:00,
2013-12-06 16:31:00,76.5,65.7,55.26,SE,135,1.6,3.8,63,0.00,,,0.00,fowsr,2013-12-06 21:31:00,
2013-12-06 16:36:00,76.3,65.9,55.35,NE,45,0.7,2.2,64,0.00,,,0.00,fowsr,2013-12-06 21:36:00,
2013-12-06 16:41:00,76.1,65.7,55.40,SSE,157,0.0,0.7,64,0.00,,,0.00,fowsr,2013-12-06 21:41:00,
2013-12-06 16:46:00,75.7,65.4,55.49,East,90,1.6,2.2,64,0.00,,,0.00,fowsr,2013-12-06 21:46:00,
2013-12-06 16:51:00,75.6,65.6,55.53,SE,135,0.0,1.6,65,0.00,,,0.00,fowsr,2013-12-06 21:51:00,
2013-12-06 16:56:00,75.2,65.3,55.62,South,180,0.0,0.7,65,0.00,,,0.00,fowsr,2013-12-06 21:56:00,
2013-12-06 17:01:00,75.0,65.4,55.58,SSE,157,1.6,4.5,66,0.00,,,0.00,fowsr,2013-12-06 22:01:00,
2013-12-06 17:06:00,74.8,65.6,55.53,SE,135,0.7,2.2,67,0.00,,,0.00,fowsr,2013-12-06 22:06:00,
2013-12-06 17:11:00,74.7,65.4,55.49,East,90,0.0,0.7,67,0.00,,,0.00,fowsr,2013-12-06 22:11:00,
2013-12-06 17:16:00,74.5,65.3,55.45,East,90,0.0,0.7,67,0.00,,,0.00,fowsr,2013-12-06 22:16:00,
2013-12-06 17:21:00,74.3,65.4,55.45,East,90,0.7,2.2,68,0.00,,,0.00,fowsr,2013-12-06 22:21:00,
2013-12-06 17:26:00,74.1,65.2,55.32,East,90,0.0,0.7,68,0.00,,,0.00,fowsr,2013-12-06 22:26:00,
2013-12-06 17:31:00,73.9,65.1,55.32,NE,45,0.7,2.2,68,0.00,,,0.00,fowsr,2013-12-06 22:31:00,
2013-12-06 17:36:00,73.8,64.9,55.41,SE,135,1.6,3.8,68,0.00,,,0.00,fowsr,2013-12-06 22:36:00,
2013-12-06 17:41:00,73.6,65.1,55.32,South,180,0.0,0.7,69,0.00,,,0.00,fowsr,2013-12-06 22:41:00,
2013-12-06 17:46:00,73.6,65.1,55.40,SE,135,0.7,1.6,69,0.00,,,0.00,fowsr,2013-12-06 22:46:00,
2013-12-06 17:51:00,73.6,65.1,55.45,SE,135,0.7,1.6,69,0.00,,,0.00,fowsr,2013-12-06 22:51:00,
2013-12-06 17:56:00,73.2,64.7,55.41,East,90,0.0,1.6,69,0.00,,,0.00,fowsr,2013-12-06 22:56:00,
2013-12-06 18:01:00,73.0,64.6,55.45,SE,135,1.6,2.2,69,0.00,,,0.00,fowsr,2013-12-06 23:01:00,
2013-12-06 18:06:00,73.0,64.9,55.45,NE,45,0.0,0.0,70,0.00,,,0.00,fowsr,2013-12-06 23:06:00,
2013-12-06 18:11:00,72.9,64.7,55.46,SE,135,0.7,1.6,70,0.00,,,0.00,fowsr,2013-12-06 23:11:00,
2013-12-06 18:16:00,72.9,64.7,55.46,SE,135,0.7,1.6,70,0.00,,,0.00,fowsr,2013-12-06 23:16:00,
2013-12-06 18:21:00,72.9,64.7,55.46,SE,135,0.7,3.8,70,0.00,,,0.00,fowsr,2013-12-06 23:21:00,
2013-12-06 18:26:00,72.7,64.5,55.36,SE,135,0.0,1.6,70,0.00,,,0.00,fowsr,2013-12-06 23:26:00,
2013-12-06 18:31:00,72.7,64.5,55.27,West,270,0.0,1.6,70,0.00,,,0.00,fowsr,2013-12-06 23:31:00,
2013-12-06 18:36:00,72.7,64.5,55.32,East,90,0.7,2.2,70,0.00,,,0.00,fowsr,2013-12-06 23:36:00,
2013-12-06 18:41:00,72.7,64.5,55.31,SE,135,1.6,2.2,70,0.00,,,0.00,fowsr,2013-12-06 23:41:00,
2013-12-06 18:46:00,72.5,64.4,55.32,South,180,2.2,3.8,70,0.00,,,0.00,fowsr,2013-12-06 23:46:00,
2013-12-06 18:51:00,72.5,64.4,55.36,South,180,0.7,3.8,70,0.00,,,0.00,fowsr,2013-12-06 23:51:00,
2013-12-06 18:56:00,72.5,64.4,55.36,SE,135,2.2,3.8,70,0.00,,,0.00,fowsr,2013-12-06 23:56:00,
2013-12-06 19:01:00,72.5,64.4,55.36,South,180,0.7,2.2,70,0.00,,,0.00,fowsr,2013-12-07 00:01:00,
2013-12-06 19:06:00,72.5,64.4,55.40,South,180,0.7,2.2,70,0.00,,,0.00,fowsr,2013-12-07 00:06:00,
2013-12-06 19:11:00,72.3,64.2,55.32,SW,225,0.7,1.6,70,0.00,,,0.00,fowsr,2013-12-07 00:11:00,
2013-12-06 19:16:00,72.3,64.2,55.33,SE,135,1.6,2.2,70,0.00,,,0.00,fowsr,2013-12-07 00:16:00,
2013-12-06 19:21:00,72.1,64.3,55.32,South,180,0.0,0.7,71,0.00,,,0.00,fowsr,2013-12-07 00:21:00,
2013-12-06 19:26:00,72.1,64.3,55.27,ESE,112,1.6,3.1,71,0.00,,,0.00,fowsr,2013-12-07 00:26:00,
2013-12-06 19:31:00,72.1,64.3,55.23,SE,135,1.6,3.1,71,0.00,,,0.00,fowsr,2013-12-07 00:31:00,
2013-12-06 19:36:00,72.1,64.3,55.19,SE,135,0.0,0.7,71,0.00,,,0.00,fowsr,2013-12-07 00:36:00,
2013-12-06 19:41:00,72.1,64.3,55.05,South,180,0.7,1.6,71,0.00,,,0.00,fowsr,2013-12-07 00:41:00,
2013-12-06 19:46:00,72.0,64.5,54.87,North,0,0.0,1.6,72,0.00,,,0.00,fowsr,2013-12-07 00:46:00,
2013-12-06 19:51:00,71.8,64.3,54.78,SE,135,0.0,1.6,72,0.00,,,0.00,fowsr,2013-12-07 00:51:00,
2013-12-06 19:56:00,71.8,64.3,54.78,South,180,2.2,4.5,72,0.00,,,0.00,fowsr,2013-12-07 00:56:00,
2013-12-06 20:01:00,71.8,64.6,54.72,SE,135,1.6,3.1,73,0.00,,,0.00,fowsr,2013-12-07 01:01:00,
2013-12-06 20:06:00,71.6,64.4,54.78,East,90,0.7,1.6,73,0.00,,,0.00,fowsr,2013-12-07 01:06:00,
2013-12-06 20:11:00,71.6,64.4,54.82,North,0,2.2,3.1,73,0.00,,,0.00,fowsr,2013-12-07 01:11:00,
2013-12-06 20:16:00,71.6,64.7,54.87,North,0,0.7,3.8,74,0.00,,,0.00,fowsr,2013-12-07 01:16:00,
2013-12-06 20:21:00,71.6,64.7,54.87,East,90,0.0,1.6,74,0.00,,,0.00,fowsr,2013-12-07 01:21:00,
2013-12-06 20:26:00,71.4,64.9,55.09,SE,135,0.0,0.7,75,0.00,,,0.00,fowsr,2013-12-07 01:26:00,
2013-12-06 20:31:00,71.4,64.9,55.05,SE,135,0.0,0.7,75,0.00,,,0.00,fowsr,2013-12-07 01:31:00,
2013-12-06 20:36:00,71.2,65.0,55.05,SE,135,1.6,4.5,76,0.00,,,0.00,fowsr,2013-12-07 01:36:00,
2013-12-06 20:41:00,71.2,65.0,55.05,East,90,1.6,2.2,76,0.00,,,0.00,fowsr,2013-12-07 01:41:00,
2013-12-06 20:46:00,71.2,65.0,55.00,SW,225,0.7,2.2,76,0.00,,,0.00,fowsr,2013-12-07 01:46:00,
2013-12-06 20:51:00,71.2,65.3,55.05,SE,135,1.6,2.2,77,0.00,,,0.00,fowsr,2013-12-07 01:51:00,
2013-12-06 20:56:00,71.2,65.3,55.14,East,90,0.7,3.1,77,0.00,,,0.00,fowsr,2013-12-07 01:56:00,
2013-12-06 21:01:00,71.2,65.3,55.14,ESE,112,2.2,3.8,77,0.00,,,0.00,fowsr,2013-12-07 02:01:00,
2013-12-06 21:06:00,71.2,65.3,55.14,ESE,112,2.2,3.8,77,0.00,,,0.00,fowsr,2013-12-07 02:06:00,
2013-12-06 21:11:00,71.2,65.3,55.18,NW,315,0.7,1.6,77,0.00,,,0.00,fowsr,2013-12-07 02:11:00,
2013-12-06 21:16:00,71.1,65.1,55.14,SSE,157,3.1,4.5,77,0.00,,,0.00,fowsr,2013-12-07 02:16:00,
2013-12-06 21:21:00,71.1,65.1,55.09,East,90,1.6,3.1,77,0.00,,,0.00,fowsr,2013-12-07 02:21:00,
2013-12-06 21:26:00,71.1,65.4,55.04,West,270,2.2,3.1,78,0.00,,,0.00,fowsr,2013-12-07 02:26:00,
2013-12-06 21:31:00,71.1,65.4,55.04,East,90,0.0,1.6,78,0.00,,,0.00,fowsr,2013-12-07 02:31:00,
2013-12-06 21:36:00,70.9,65.2,55.22,South,180,0.0,1.6,78,0.00,,,0.00,fowsr,2013-12-07 02:36:00,
2013-12-06 21:41:00,70.9,65.2,55.23,SE,135,0.7,3.1,78,0.00,,,0.00,fowsr,2013-12-07 02:41:00,
2013-12-06 21:46:00,70.7,65.3,55.23,SE,135,0.7,3.1,79,0.00,,,0.00,fowsr,2013-12-07 02:46:00,
2013-12-06 21:51:00,70.9,65.5,55.18,South,180,3.8,5.4,79,0.00,,,0.00,fowsr,2013-12-07 02:51:00,
2013-12-06 21:56:00,70.9,65.5,55.27,SE,135,0.7,2.2,79,0.00,,,0.00,fowsr,2013-12-07 02:56:00,
2013-12-06 22:01:00,70.7,65.3,55.27,East,90,3.8,8.3,79,0.00,,,0.00,fowsr,2013-12-07 03:01:00,
2013-12-06 22:06:00,70.7,65.3,55.27,SE,135,1.6,6.0,79,0.00,,,0.00,fowsr,2013-12-07 03:06:00,
2013-12-06 22:11:00,70.7,65.3,55.23,SE,135,1.6,3.8,79,0.00,,,0.00,fowsr,2013-12-07 03:11:00,
2013-12-06 22:16:00,70.7,65.3,55.22,North,0,1.6,3.8,79,0.00,,,0.00,fowsr,2013-12-07 03:16:00,
2013-12-06 22:21:00,70.7,65.3,55.27,South,180,1.6,3.8,79,0.00,,,0.00,fowsr,2013-12-07 03:21:00,
2013-12-06 22:26:00,70.5,65.4,55.32,East,90,1.6,3.8,80,0.00,,,0.00,fowsr,2013-12-07 03:26:00,
2013-12-06 22:31:00,70.5,65.4,55.28,NE,45,2.2,3.8,80,0.00,,,0.00,fowsr,2013-12-07 03:31:00,
2013-12-06 22:36:00,70.3,65.3,55.33,SE,135,0.7,2.2,80,0.00,,,0.00,fowsr,2013-12-07 03:36:00,
2013-12-06 22:41:00,70.2,65.1,55.28,North,0,0.7,2.2,80,0.00,,,0.00,fowsr,2013-12-07 03:41:00,
2013-12-06 22:46:00,70.2,65.1,55.38,SE,135,0.7,2.2,80,0.00,,,0.00,fowsr,2013-12-07 03:46:00,
2013-12-06 22:51:00,70.0,64.9,55.38,SE,135,0.7,2.2,80,0.00,,,0.00,fowsr,2013-12-07 03:51:00,
2013-12-06 22:56:00,70.0,65.2,55.42,South,180,0.0,0.7,81,0.00,,,0.00,fowsr,2013-12-07 03:56:00,
2013-12-06 23:01:00,70.0,65.2,55.34,East,90,0.0,2.2,81,0.00,,,0.00,fowsr,2013-12-07 04:01:00,
2013-12-06 23:06:00,69.8,65.0,55.34,South,180,0.0,1.6,81,0.00,,,0.00,fowsr,2013-12-07 04:06:00,
2013-12-06 23:11:00,69.8,65.0,55.34,East,90,0.0,0.7,81,0.00,,,0.00,fowsr,2013-12-07 04:11:00,
2013-12-06 23:16:00,69.6,65.1,55.34,SE,135,0.0,0.7,82,0.00,,,0.00,fowsr,2013-12-07 04:16:00,
2013-12-06 23:21:00,69.6,65.1,55.43,SE,135,1.6,3.8,82,0.00,,,0.00,fowsr,2013-12-07 04:21:00,
2013-12-06 23:26:00,69.4,65.2,55.39,East,90,0.0,0.7,83,0.00,,,0.00,fowsr,2013-12-07 04:26:00,
2013-12-06 23:31:00,69.4,65.2,55.39,NE,45,0.7,2.2,83,0.00,,,0.00,fowsr,2013-12-07 04:31:00,
2013-12-06 23:36:00,69.4,65.2,55.52,North,0,0.0,0.7,83,0.00,,,0.00,fowsr,2013-12-07 04:36:00,
2013-12-06 23:41:00,69.4,65.2,55.65,WSW,247,0.0,0.7,83,0.00,,,0.00,fowsr,2013-12-07 04:41:00,
2013-12-06 23:46:00,69.4,65.2,55.75,SE,135,0.0,1.6,83,0.00,,,0.00,fowsr,2013-12-07 04:46:00,
2013-12-06 23:51:00,69.4,65.5,56.11,NW,315,0.7,3.1,84,0.00,,,0.00,fowsr,2013-12-07 04:51:00,
2013-12-06 23:56:00,69.4,65.5,56.20,SE,135,0.7,1.6,84,0.00,,,0.00,fowsr,2013-12-07 04:56:00,